Main page
METAR-TAF:

METAR-TAF

Airports :

Orio al Serio International Airport

Bergamo, Italy

latitude: 45-40N, longitude: 009-42E, elevation: 238 m

Current weather observation

The report was made 47 minutes ago, at 12:20 UTC
Wind 3 kt from the West/Southwest, varying between Southwest and West/Northwest
Temperature 10°C
Humidity 66%
Pressure 1014 hPa
Visibility 10 km or more
no clouds below 1500 m and no cumulonimbus

METAR: LIME 211220Z 25003KT 220V300 CAVOK 10/04 Q1014 NOSIG

Time: 14:07 (13:07 UTC)

Forecast

The report was made 2 hours and 7 minutes ago, at 11:00 UTC
Forecast valid from 21 at 12 UTC to 22 at 12 UTC
Wind 5 kt from variable directions
Visibility: 7000 m
Broken clouds at a height of 6000 ft
Temporary
from 21 at 15 UTC to 21 at 21 UTC
rain

TAF: LIME 211100Z 2112/2212 VRB05KT 7000 BKN060 TEMPO 2115/2121 RA

Weather observations and forecasts of more than 4000 airports (METAR and TAF reports).

The available stations are represented by yellow and red dots on the map.

Hover mouse over dot to see the name of the station.

Then click to see weather observations and forecasts.

To change the map : click on the green buttons with a black cross to zoom in, on the green button with a dash to zoom out, or on the green arrows for adjacent maps.


METAR-TAF: